createdAt,value
2022-12-28T00:00:35.058Z,99976.14
2022-12-28T00:07:10.573Z,99975.54
2022-12-28T00:12:58.078Z,99969.29
2022-12-28T00:19:23.021Z,99965.35
2022-12-28T00:25:47.727Z,99959.61
2022-12-28T00:32:13.949Z,99961.89
2022-12-28T00:41:03.064Z,99964.85
2022-12-28T00:46:15.001Z,99963.03
2022-12-28T00:52:08.818Z,99964.42
2022-12-28T01:04:39.161Z,99970.92
2022-12-28T01:11:08.316Z,99970.90
2022-12-28T01:18:14.582Z,99976.30
2022-12-28T01:24:23.738Z,99981.77
2022-12-28T01:31:25.994Z,99983.77
2022-12-28T01:37:41.229Z,99977.50
2022-12-28T01:45:02.449Z,99968.62
2022-12-28T01:52:15.993Z,99964.46
2022-12-28T01:59:07.299Z,99964.15
2022-12-28T02:07:17.691Z,99953.51
2022-12-28T02:20:21.972Z,99938.04
2022-12-28T02:33:10.495Z,99939.25
2022-12-28T02:39:51.506Z,99946.42
2022-12-28T02:53:22.926Z,99932.84
2022-12-28T03:00:03.285Z,99927.39
2022-12-28T03:12:48.280Z,99894.63
2022-12-28T03:21:15.881Z,99891.22
2022-12-28T03:39:44.765Z,99876.14
2022-12-28T03:53:43.616Z,99882.05
2022-12-28T03:59:30.629Z,99885.91
2022-12-28T04:20:00.304Z,99878.35
2022-12-28T04:44:10.266Z,99850.63
2022-12-28T04:50:00.225Z,99852.39
2022-12-28T04:55:32.412Z,99853.34
2022-12-28T05:01:24.758Z,99842.52
2022-12-28T05:07:40.562Z,99825.02
2022-12-28T05:14:03.530Z,99826.24
2022-12-28T05:21:56.941Z,99830.89
2022-12-28T05:28:20.497Z,99824.55
2022-12-28T05:34:33.316Z,99837.62
2022-12-28T05:40:37.620Z,99836.38
2022-12-28T05:47:16.160Z,99828.23
2022-12-28T05:53:39.444Z,99825.96
2022-12-28T05:59:48.296Z,99820.97
2022-12-28T06:05:24.531Z,99815.12
2022-12-28T06:11:24.373Z,99803.52
2022-12-28T06:17:53.547Z,99806.04
2022-12-28T06:23:25.011Z,99801.41
2022-12-28T06:43:48.938Z,99797.14
2022-12-28T06:49:28.644Z,99790.15
2022-12-28T06:56:37.534Z,99781.02
2022-12-28T07:02:49.093Z,99778.51
2022-12-28T07:16:09.407Z,99760.80
2022-12-28T07:28:10.025Z,99744.63
2022-12-28T08:08:46.328Z,99717.77
2022-12-28T08:25:29.359Z,99708.86
2022-12-28T08:30:12.281Z,99707.05
2022-12-28T08:52:14.405Z,99701.91
2022-12-28T09:05:35.923Z,99707.24
2022-12-28T09:48:52.387Z,99672.08
2022-12-28T09:55:07.826Z,99667.91
2022-12-28T10:01:14.016Z,99652.06
2022-12-28T10:06:32.982Z,99648.83
2022-12-28T10:12:10.666Z,99645.02
2022-12-28T10:17:57.203Z,99633.15
2022-12-28T10:23:14.908Z,99630.27
2022-12-28T10:29:19.060Z,99630.80
2022-12-28T10:35:57.231Z,99622.29
2022-12-28T11:23:23.347Z,99545.08
2022-12-28T11:30:17.017Z,99539.36
2022-12-28T11:41:33.636Z,99512.74
2022-12-28T11:47:33.676Z,99503.98
2022-12-28T12:08:03.476Z,99480.98
2022-12-28T12:20:22.733Z,99454.54
2022-12-28T12:26:58.874Z,99444.77
2022-12-28T12:32:49.869Z,99431.43
2022-12-28T12:38:45.645Z,99426.56
2022-12-28T12:44:59.334Z,99408.25
2022-12-28T12:51:05.459Z,99400.13
2022-12-28T12:57:00.248Z,99386.66
2022-12-28T13:02:59.542Z,99384.39
2022-12-28T13:09:15.304Z,99373.39
2022-12-28T13:15:22.564Z,99368.64
2022-12-28T13:21:22.682Z,99367.68
2022-12-28T13:27:12.335Z,99365.87
2022-12-28T13:33:18.138Z,99364.22
2022-12-28T13:39:18.850Z,99359.89
2022-12-28T13:45:51.017Z,99349.17
2022-12-28T13:51:59.564Z,99333.42
2022-12-28T13:58:32.899Z,99329.20
2022-12-28T14:04:56.245Z,99316.13
2022-12-28T14:11:02.423Z,99311.85
2022-12-28T14:17:00.496Z,99300.19
2022-12-28T14:23:13.707Z,99305.40
2022-12-28T14:29:26.875Z,99305.67
2022-12-28T14:35:19.576Z,99308.79
2022-12-28T14:41:37.125Z,99318.06
2022-12-28T14:47:34.515Z,99314.08
2022-12-28T14:53:23.045Z,99315.95
2022-12-28T14:59:47.607Z,99313.89
2022-12-28T15:06:13.447Z,99313.44
2022-12-28T15:12:12.232Z,99308.25
2022-12-28T15:17:43.483Z,99310.11
2022-12-28T15:23:46.693Z,99308.34
2022-12-28T15:30:16.286Z,99301.98
2022-12-28T15:36:20.771Z,99300.98
2022-12-28T15:42:45.338Z,99301.51
2022-12-28T15:48:47.691Z,99302.37
2022-12-28T15:54:47.513Z,99299.64
2022-12-28T16:01:01.991Z,99294.48
2022-12-28T16:07:27.136Z,99290.95
2022-12-28T16:13:51.970Z,99289.65
2022-12-28T16:19:15.900Z,99285.20
2022-12-28T16:24:32.333Z,99280.62
2022-12-28T16:30:26.935Z,99273.56
2022-12-28T16:36:40.341Z,99271.21
2022-12-28T16:42:27.338Z,99262.05
2022-12-28T16:47:57.049Z,99256.73
2022-12-28T16:53:06.526Z,99251.33
2022-12-28T16:58:24.380Z,99243.66
2022-12-28T17:03:28.796Z,99239.08
2022-12-28T17:08:35.683Z,99241.51
2022-12-28T17:13:42.337Z,99237.30
2022-12-28T17:19:16.055Z,99245.20
2022-12-28T17:24:47.929Z,99248.11
2022-12-28T17:30:39.508Z,99246.45
2022-12-28T17:37:38.311Z,99250.72
2022-12-28T17:43:38.347Z,99239.15
2022-12-28T17:56:30.282Z,99230.80
2022-12-28T18:03:18.958Z,99235.26
2022-12-28T18:30:10.243Z,99227.59
2022-12-28T18:36:38.942Z,99221.17
2022-12-28T18:49:25.313Z,99221.29
2022-12-28T18:55:11.736Z,99223.10
2022-12-28T19:01:32.873Z,99221.13
2022-12-28T19:07:19.440Z,99219.50
2022-12-28T19:12:44.633Z,99214.72
2022-12-28T19:18:39.029Z,99215.81
2022-12-28T19:31:23.249Z,99221.63
2022-12-28T19:36:32.257Z,99224.84
2022-12-28T19:41:35.987Z,99227.30
2022-12-28T19:47:19.794Z,99219.81
2022-12-28T19:53:22.489Z,99216.97
2022-12-28T19:58:52.333Z,99210.92
2022-12-28T20:04:27.333Z,99202.49
2022-12-28T20:09:30.515Z,99196.00
2022-12-28T20:14:33.701Z,99198.34
2022-12-28T20:19:37.123Z,99191.02
2022-12-28T20:24:40.344Z,99197.18
2022-12-28T20:29:44.646Z,99199.17
2022-12-28T20:34:47.957Z,99193.74
2022-12-28T20:39:51.112Z,99195.66
2022-12-28T20:44:57.447Z,99190.17
2022-12-28T20:50:00.560Z,99191.38
2022-12-28T20:55:03.922Z,99187.34
2022-12-28T21:00:08.599Z,99181.68
2022-12-28T21:05:16.488Z,99178.45
2022-12-28T21:10:19.660Z,99175.01
2022-12-28T21:15:22.851Z,99172.68
2022-12-28T21:20:26.774Z,99173.55
2022-12-28T21:25:33.760Z,99164.05
2022-12-28T21:30:37.239Z,99162.58
2022-12-28T21:35:41.054Z,99156.39
2022-12-28T21:40:44.209Z,99156.15
2022-12-28T21:46:07.498Z,99157.15
2022-12-28T21:51:31.758Z,99151.05
2022-12-28T21:56:35.917Z,99144.44
2022-12-28T22:02:11.014Z,99134.52
2022-12-28T22:07:17.149Z,99124.42
2022-12-28T22:12:38.666Z,99116.45
2022-12-28T22:17:43.136Z,99108.39
2022-12-28T22:22:46.541Z,99102.25
2022-12-28T22:27:49.772Z,99097.74
2022-12-28T22:32:53.051Z,99092.30
2022-12-28T22:37:56.259Z,99089.61
2022-12-28T22:42:59.479Z,99087.82
2022-12-28T22:48:02.758Z,99076.06
2022-12-28T22:53:05.914Z,99072.14
2022-12-28T22:58:09.208Z,99063.98
2022-12-28T23:03:12.986Z,99059.12
2022-12-28T23:08:16.658Z,99058.95
2022-12-28T23:13:20.070Z,99060.95
2022-12-28T23:18:41.770Z,99061.55
2022-12-28T23:24:03.824Z,99062.98
2022-12-28T23:29:07.115Z,99062.48
2022-12-28T23:35:03.947Z,99053.77
2022-12-28T23:41:17.944Z,99050.55
2022-12-28T23:47:21.993Z,99045.01
2022-12-28T23:52:48.918Z,99040.52
2022-12-28T23:58:05.166Z,99039.61
